EPKKEPWR

Guest
Details From EPKK - Krakow-John Paul II
To EPWR - Wroclaw-Copernicus Int'l
Flight Number -
Tags generated
Created
Modified
Stats Distance 127 nm / 235 km
Max Altitude 9,300 ft / 2,835 m
Waypoints 3
Social Downloads 1
Likes 0
Share

Download

Looking for another format? Having issues loading an existing format? Contact us
Advertisement - Login to hide

Notes

Basic altitude profile: - Ascent Rate: 2500ft/min - Ascent Speed: 250kts - Cruise Altitude: 35000ft - Cruise Speed: 420kts - Descent Rate: 1500ft/min - Descent Speed: 250kts Options: - Use NATs: yes - Use PACOTS: yes - Use low airways: yes - Use high airways: yes

Route

EPKK SABAB EPWR

ID Type Via Altitude (ft/m) Position (lat/lon) Dist (leg/tot) Name
O EPKK APT - 0 / 0 50.07780 / 19.78550 - / 0 nm Krakow-John Paul II
SABAB FIX - 9,300 / 2,835 50.77030 / 17.89920 83 / 83 nm
O EPWR APT - 0 / 0 51.10390 / 16.88190 43 / 126 nm Wroclaw-Copernicus Int'l

Altitude Profile

Advertisement - Login to hide

EPKK

Details ICAO EPKK (KRK)
Name Krakow-John Paul II
Region Poland
Timezone Europe/Warsaw (UTC+2.0)
Stats Elevation 791 ft / 241 m (AMSL)
Location 50.077800° 19.785500°
Runways 1
Magnetic Variation 5.517° E

METAR

EPKK 111630Z 26004KT 230V290 9999 OVC020 13/11 Q1023

Decode

TAF

TAF EPKK 111430Z 1115/1215 35010KT 9999 BKN030 TEMPO 1115/1119 4000 SHRA BKN014CB PROB30 TEMPO 1115/1117 VRB15G30KT TSRA BECMG 1119/1121 VRB02KT 4000 -RA BR BKN010 TEMPO 1119/1203 2000 RA BR BKN008 OVC010 BECMG 1205/1208 CAVOK

Decode

Departure Runways

ID Width Length Bearing (true/mag) Surface Threshold Overrun Markings Lighting
07 197 ft / 60 m 8,352 ft / 2,546 m 77.76° / 72.24° CONCRETE 0 ft / 0 m 0 ft / 0 m PREC-APP CENTERLINE EDGE THRESHOLD ALSF-I REIL-OMNI
25 197 ft / 60 m 8,352 ft / 2,546 m 257.78° / 252.27° CONCRETE 778 ft / 237 m 0 ft / 0 m PREC-APP CENTERLINE EDGE THRESHOLD ALSF-II TDZ REIL-OMNI

EPWR

Details ICAO EPWR (WRO)
Name Wroclaw-Copernicus Int'l
Region Poland
Timezone Europe/Warsaw (UTC+2.0)
Stats Elevation 403 ft / 123 m (AMSL)
Location 51.103900° 16.881900°
Runways 1
Magnetic Variation 4.940° E

METAR

EPWR 111630Z 08003KT 9999 FEW036 16/09 Q1023

Decode

TAF

TAF EPWR 111430Z 1115/1215 VRB02KT 9999 SCT040 BECMG 1206/1209 33010KT

Decode

Destination Runways

ID Width Length Bearing (true/mag) Surface Threshold Overrun Markings Lighting
12 148 ft / 45 m 8,220 ft / 2,506 m 115.99° / 111.05° CONCRETE 0 ft / 0 m 108 ft / 33 m PREC-APP EDGE THRESHOLD SALS
30 148 ft / 45 m 8,220 ft / 2,506 m 296.02° / 291.08° CONCRETE 0 ft / 0 m 92 ft / 28 m PREC-APP EDGE THRESHOLD CALVERT

Approach Navaids

Runway Type Ident Frequency Range Bearing (true/mag) Slope Elevation
30 GS WRO 110.30 MHz 10 nm / 19 km 296.01° / 291.07 ° 3.00° 403 ft / 123 m (AMSL)
30 DME WRO 110.30 MHz 18 nm / 33 km - - 394 ft / 120 m (AMSL)
30 OM OM - - 296.00° / 291.06 ° - 404 ft / 123 m (AMSL)
30 LOC-ILS WRO 110.30 MHz 18 nm / 33 km 296.01° / 291.07 ° - 403 ft / 123 m (AMSL)

Popular Alternatives